KCKB

North Central West Virginia Airport

Clarksburg, West Virginia, USA
METAR KCKB 171353Z 25011G18KT 10SM OVC017 06/02 A3003 RMK AO2 SLP169 T00610017
Observed Flight Rules
Dec-17 @ 13:53 UTC (37 minutes ago) Marginal Visual Flight Rules
Wind Visibility Clouds
250° at 11 knots
 Gusting to 18 knots
10 miles
  • Overcast at 1,700' AGL
Temperatures Readings
Current 6°C / 43°F
Dewpoint 2°C / 36°F
Humidity 76%
Altimeter 30.03" Hg
Pressure 1016.9 hPa
Elevation 360
METAR KCKB 171353Z 25011G18KT 10SM OVC017 06/02 A3003 RMK AO2 SLP169 T00610017
Observed Flight Rules
Dec-17 @ 13:53 UTC
(37 minutes ago)
MVFR
Wind Visibility
250° at 11 knots
 Gusting to 18 knots
10 miles
Clouds
  • Overcast at 1,700' AGL
Temperature Dewpoint
6°C / 43°F 2°C / 36°F
Humidity Altimeter Pressure
76% 30.03" Hg 1016.9 hPa